Webcam

2022/05/17 16:20 EBBR 171620Z 23010KT 200V270 CAVOK 26/06 Q1018 NOSIG

Webcam

--- Refresh now ---